TimeEDT,TemperatureF,Dew PointF,Humidity,Sea Level PressureIn,VisibilityMPH,Wind Direction,Wind SpeedMPH,Gust SpeedMPH,PrecipitationIn,Events,Conditions,WindDirDegrees,DateUTC
12:15 AM,64.6,64.6,100,30.09,3.0,North,-9999.0,-,N/A,,Scattered Clouds,0,2013-08-02 04:15:00
12:35 AM,64.0,64.0,100,30.09,3.0,North,-9999.0,-,N/A,,Scattered Clouds,0,2013-08-02 04:35:00
12:55 AM,63.7,63.7,100,30.09,3.0,North,-9999.0,-,N/A,,Scattered Clouds,0,2013-08-02 04:55:00
1:15 AM,63.9,63.9,100,30.09,3.0,North,-9999.0,-,N/A,,Overcast,0,2013-08-02 05:15:00
1:35 AM,63.9,63.9,100,30.09,1.2,North,-9999.0,-,N/A,,Overcast,0,2013-08-02 05:35:00
1:55 AM,64.4,64.4,100,30.08,0.8,North,-9999.0,-,N/A,,Overcast,0,2013-08-02 05:55:00
2:15 AM,64.8,64.8,100,30.08,1.2,North,-9999.0,-,N/A,,Overcast,0,2013-08-02 06:15:00
2:35 AM,65.3,65.3,100,30.08,0.8,North,-9999.0,-,N/A,,Overcast,0,2013-08-02 06:35:00
2:55 AM,65.3,65.3,100,30.08,0.2,North,-9999.0,-,N/A,Fog,Fog,0,2013-08-02 06:55:00
3:15 AM,65.8,65.8,100,30.07,0.2,North,-9999.0,-,N/A,Fog,Fog,0,2013-08-02 07:15:00
3:35 AM,65.7,65.7,100,30.08,0.2,North,-9999.0,-,N/A,Fog,Fog,0,2013-08-02 07:35:00
3:55 AM,65.3,65.3,100,30.08,1.0,North,-9999.0,-,N/A,,Overcast,0,2013-08-02 07:55:00
4:15 AM,65.7,65.7,100,30.09,0.8,North,-9999.0,-,N/A,,Overcast,0,2013-08-02 08:15:00
4:35 AM,65.5,65.5,100,30.08,0.8,North,-9999.0,-,N/A,,Overcast,0,2013-08-02 08:35:00
4:55 AM,65.3,65.3,100,30.08,0.5,North,-9999.0,-,N/A,Fog,Fog,0,2013-08-02 08:55:00
5:15 AM,65.7,65.7,100,30.09,1.2,North,-9999.0,-,N/A,,Overcast,0,2013-08-02 09:15:00
5:35 AM,65.3,65.3,100,30.10,4.0,North,-9999.0,-,N/A,,Overcast,0,2013-08-02 09:35:00
5:55 AM,65.3,65.3,100,30.11,5.0,North,-9999.0,-,N/A,,Overcast,0,2013-08-02 09:55:00
6:15 AM,65.3,65.3,100,30.10,3.0,North,-9999.0,-,N/A,,Overcast,0,2013-08-02 10:15:00
6:35 AM,65.3,65.3,100,30.11,3.0,North,-9999.0,-,N/A,,Overcast,0,2013-08-02 10:35:00
6:55 AM,65.3,65.3,100,30.12,3.0,North,-9999.0,-,N/A,,Overcast,0,2013-08-02 10:55:00
7:15 AM,65.3,65.3,100,30.13,4.0,North,-9999.0,-,N/A,,Overcast,0,2013-08-02 11:15:00
7:35 AM,65.7,65.7,100,30.13,5.0,North,-9999.0,-,N/A,,Overcast,0,2013-08-02 11:35:00
7:55 AM,65.8,65.8,100,30.13,7.0,North,-9999.0,-,N/A,,Overcast,0,2013-08-02 11:55:00
8:15 AM,65.7,65.3,99,30.13,7.0,North,-9999.0,-,N/A,,Overcast,0,2013-08-02 12:15:00
8:35 AM,66.9,65.3,95,30.12,7.0,North,-9999.0,-,N/A,,Mostly Cloudy,0,2013-08-02 12:35:00
8:55 AM,68.5,65.5,90,30.11,7.0,North,-9999.0,-,N/A,,Overcast,0,2013-08-02 12:55:00
9:15 AM,69.1,65.3,88,30.12,10.0,North,-9999.0,-,N/A,,Mostly Cloudy,0,2013-08-02 13:15:00
9:35 AM,69.1,65.7,89,30.12,10.0,North,-9999.0,-,N/A,,Mostly Cloudy,0,2013-08-02 13:35:00
9:55 AM,70.7,65.3,83,30.13,7.0,North,-9999.0,-,N/A,,Scattered Clouds,0,2013-08-02 13:55:00
10:15 AM,72.1,65.3,79,30.13,10.0,North,-9999.0,-,N/A,,Scattered Clouds,0,2013-08-02 14:15:00
10:35 AM,73.4,65.7,77,30.14,10.0,North,-9999.0,-,N/A,,Mostly Cloudy,0,2013-08-02 14:35:00
10:55 AM,73.4,66.0,78,30.15,7.0,North,-9999.0,-,N/A,,Scattered Clouds,0,2013-08-02 14:55:00
11:15 AM,74.3,65.3,73,30.15,10.0,North,-9999.0,-,N/A,,Clear,0,2013-08-02 15:15:00
11:35 AM,75.6,64.4,68,30.15,10.0,North,-9999.0,-,N/A,,Scattered Clouds,0,2013-08-02 15:35:00
11:55 AM,77.2,64.0,64,30.15,10.0,North,-9999.0,-,N/A,,Clear,0,2013-08-02 15:55:00
12:15 PM,77.7,61.5,57,30.15,10.0,North,-9999.0,-,N/A,,Clear,0,2013-08-02 16:15:00
12:35 PM,78.1,62.4,58,30.15,10.0,North,-9999.0,-,N/A,,Scattered Clouds,0,2013-08-02 16:35:00
12:55 PM,79.2,60.4,53,30.15,10.0,North,-9999.0,-,N/A,,Clear,0,2013-08-02 16:55:00
1:15 PM,80.4,62.4,54,30.15,10.0,North,-9999.0,-,N/A,,Clear,0,2013-08-02 17:15:00
1:35 PM,78.6,62.2,57,30.15,10.0,North,-9999.0,-,N/A,,Scattered Clouds,0,2013-08-02 17:35:00
1:55 PM,80.1,59.2,49,30.14,10.0,North,-9999.0,-,N/A,,Clear,0,2013-08-02 17:55:00
2:15 PM,79.9,61.9,54,30.15,10.0,North,-9999.0,-,N/A,,Scattered Clouds,0,2013-08-02 18:15:00
2:35 PM,80.4,61.7,53,30.15,10.0,North,-9999.0,-,N/A,,Mostly Cloudy,0,2013-08-02 18:35:00
2:55 PM,80.1,61.3,53,30.15,10.0,North,-9999.0,-,N/A,,Mostly Cloudy,0,2013-08-02 18:55:00
3:15 PM,81.1,60.1,49,30.14,10.0,North,-9999.0,-,N/A,,Scattered Clouds,0,2013-08-02 19:15:00
3:35 PM,81.5,60.3,48,30.14,10.0,North,-9999.0,-,N/A,,Clear,0,2013-08-02 19:35:00
3:55 PM,82.2,61.5,49,30.14,10.0,North,-9999.0,-,N/A,,Clear,0,2013-08-02 19:55:00
4:15 PM,81.0,62.6,53,30.14,10.0,North,-9999.0,-,N/A,,Clear,0,2013-08-02 20:15:00
4:35 PM,81.3,64.2,56,30.13,10.0,North,-9999.0,-,N/A,,Scattered Clouds,0,2013-08-02 20:35:00
4:55 PM,80.2,64.0,58,30.13,10.0,North,-9999.0,-,N/A,,Scattered Clouds,0,2013-08-02 20:55:00
5:15 PM,78.8,65.7,64,30.13,10.0,North,-9999.0,-,N/A,,Scattered Clouds,0,2013-08-02 21:15:00
5:35 PM,77.4,67.5,71,30.13,10.0,North,-9999.0,-,N/A,,Scattered Clouds,0,2013-08-02 21:35:00
5:55 PM,75.6,68.4,78,30.13,10.0,North,-9999.0,-,N/A,,Clear,0,2013-08-02 21:55:00
6:15 PM,75.4,68.5,79,30.12,10.0,North,-9999.0,-,N/A,,Clear,0,2013-08-02 22:15:00
6:35 PM,75.4,69.4,82,30.11,10.0,North,-9999.0,-,N/A,,Clear,0,2013-08-02 22:35:00
6:55 PM,73.8,69.3,86,30.11,10.0,North,-9999.0,-,N/A,,Clear,0,2013-08-02 22:55:00
7:15 PM,73.6,69.4,87,30.11,10.0,North,-9999.0,-,N/A,,Clear,0,2013-08-02 23:15:00
7:35 PM,72.5,69.1,89,30.12,10.0,North,-9999.0,-,N/A,,Clear,0,2013-08-02 23:35:00
7:55 PM,70.5,68.0,92,30.13,10.0,North,-9999.0,-,N/A,,Clear,0,2013-08-02 23:55:00
8:15 PM,70.2,68.4,94,30.13,10.0,North,-9999.0,-,N/A,,Clear,0,2013-08-03 00:15:00
8:35 PM,69.3,68.0,96,30.13,10.0,North,-9999.0,-,N/A,,Clear,0,2013-08-03 00:35:00
8:55 PM,68.5,67.8,98,30.12,10.0,North,-9999.0,-,N/A,,Clear,0,2013-08-03 00:55:00
9:15 PM,68.0,67.1,97,30.13,10.0,North,-9999.0,-,N/A,,Clear,0,2013-08-03 01:15:00
9:35 PM,67.3,66.9,99,30.13,10.0,North,-9999.0,-,N/A,,Clear,0,2013-08-03 01:35:00
9:55 PM,67.1,66.6,98,30.14,7.0,North,-9999.0,-,N/A,,Clear,0,2013-08-03 01:55:00
10:15 PM,66.7,66.6,99,30.14,10.0,North,-9999.0,-,N/A,,Clear,0,2013-08-03 02:15:00
10:35 PM,66.6,66.4,99,30.14,7.0,North,-9999.0,-,N/A,,Clear,0,2013-08-03 02:35:00
10:55 PM,66.0,66.0,100,30.14,7.0,North,-9999.0,-,N/A,,Clear,0,2013-08-03 02:55:00
11:15 PM,65.5,65.5,100,30.14,7.0,North,-9999.0,-,N/A,,Clear,0,2013-08-03 03:15:00
11:35 PM,65.1,65.1,100,30.13,5.0,North,-9999.0,-,N/A,,Clear,0,2013-08-03 03:35:00
11:55 PM,64.2,64.2,100,30.13,5.0,North,-9999.0,-,N/A,,Clear,0,2013-08-03 03:55:00